Time;durP1;ratioP1;P1;durP2;ratioP2;P2;SDS_P1;SDS_P2;PMS_P1;PMS_P2;Temp;Humidity;BMP_temperature;BMP_pressure;BME280_temperature;BME280_humidity;BME280_pressure;Samples;Min_cycle;Max_cycle;Signal;HPM_P1;HPM_P2
2024/02/11 00:00:19;;;;;;;15.03;12.03;;;9.90;99.90;;;-141.84;100.00;109898.81;5047128;28;20282;-66
2024/02/11 00:02:48;;;;;;;14.97;11.70;;;9.90;99.90;;;-141.84;100.00;109632.72;5043054;28;20186;-65
2024/02/11 00:05:17;;;;;;;15.73;12.20;;;9.90;99.90;;;-141.84;100.00;112826.88;5043678;28;20228;-66
2024/02/11 00:07:46;;;;;;;13.27;11.83;;;9.80;99.90;;;-141.84;100.00;110963.31;5042939;28;20701;-64
2024/02/11 00:10:15;;;;;;;13.67;11.77;;;9.90;99.90;;;-141.84;100.00;109100.59;5041127;28;20245;-64
2024/02/11 00:12:44;;;;;;;13.23;11.30;;;9.90;99.90;;;-141.84;100.00;110431.03;5039740;28;20517;-64
2024/02/11 00:15:13;;;;;;;12.70;11.10;;;9.80;99.90;;;-141.84;100.00;109632.72;5040741;28;20743;-63
2024/02/11 00:17:43;;;;;;;13.83;12.07;;;9.80;99.90;;;-141.84;99.88;107770.63;5041690;28;20201;-64
2024/02/11 00:20:15;;;;;;;14.57;11.53;;;9.80;99.90;;;-141.84;99.48;107238.72;5045685;28;20316;-61
2024/02/11 00:22:45;;;;;;;13.40;11.10;;;9.90;99.90;;;-141.84;99.66;106972.81;5043171;28;20690;-61
2024/02/11 00:25:14;;;;;;;13.97;11.00;;;9.80;99.90;;;-141.84;99.49;106706.94;5042900;28;20221;-66
2024/02/11 00:27:48;;;;;;;13.30;11.40;;;9.90;99.90;;;-141.84;100.00;109632.72;5040144;28;20225;-66
2024/02/11 00:30:17;;;;;;;13.70;10.67;;;9.80;99.90;;;-141.84;100.00;110431.03;5042984;28;20212;-66
2024/02/11 00:32:46;;;;;;;13.03;10.70;;;9.80;99.90;;;-141.84;100.00;109632.72;5042775;28;20252;-67
2024/02/11 00:35:17;;;;;;;13.07;10.90;;;9.80;99.90;;;-141.84;100.00;109100.59;5039821;28;20595;-66
2024/02/11 00:37:48;;;;;;;11.87;10.63;;;9.80;99.90;;;-141.84;100.00;109100.59;5043405;28;20241;-65
2024/02/11 00:40:16;;;;;;;11.63;10.33;;;9.80;99.90;;;-141.84;100.00;110963.31;5040907;28;20229;-65
2024/02/11 00:42:46;;;;;;;12.80;11.27;;;9.70;99.90;;;-141.84;100.00;113093.19;5040897;28;20226;-64
2024/02/11 00:45:15;;;;;;;13.33;10.50;;;9.60;99.90;;;-141.84;100.00;115224.16;5011616;28;20669;-64
2024/02/11 00:47:47;;;;;;;12.93;10.63;;;9.60;99.90;;;-141.84;100.00;114957.72;5040864;28;20658;-64
2024/02/11 00:50:16;;;;;;;12.97;11.07;;;9.60;99.90;;;-141.84;100.00;115224.16;5042338;28;20221;-64
2024/02/11 00:52:50;;;;;;;13.87;11.03;;;9.50;99.90;;;-141.84;100.00;113359.50;5038930;28;20225;-63
2024/02/11 00:55:21;;;;;;;11.90;10.47;;;9.60;99.90;;;-141.84;100.00;110963.31;5036949;28;20224;-64
2024/02/11 00:57:49;;;;;;;12.00;10.43;;;9.60;99.90;;;-141.84;100.00;112294.34;5042688;28;20221;-65
2024/02/11 01:00:20;;;;;;;11.43;10.13;;;9.60;99.90;;;-141.84;100.00;108302.56;5039608;28;20228;-65
2024/02/11 01:02:49;;;;;;;11.90;10.50;;;9.70;99.90;;;-141.84;100.00;110431.03;5036105;28;20281;-65
2024/02/11 01:05:19;;;;;;;13.97;10.27;;;9.60;99.90;;;-141.84;100.00;113359.50;5038591;28;20220;-54
2024/02/11 01:07:47;;;;;;;12.17;10.07;;;9.60;99.90;;;-141.84;100.00;112294.34;5038647;28;20227;-55
2024/02/11 01:10:17;;;;;;;11.40;10.10;;;9.60;99.90;;;-141.84;100.00;113625.81;5037223;28;20249;-53
2024/02/11 01:12:46;;;;;;;14.30;10.50;;;9.60;99.90;;;-141.84;100.00;111495.69;5040902;28;20285;-55
2024/02/11 01:15:18;;;;;;;11.83;10.00;;;9.50;99.90;;;-141.84;100.00;107770.63;5038279;28;20287;-54
2024/02/11 01:17:48;;;;;;;11.67;9.97;;;9.60;99.90;;;-141.84;98.75;105643.53;4996354;28;20567;-55
2024/02/11 01:20:19;;;;;;;11.17;9.80;;;9.60;99.90;;;-141.84;98.50;105111.94;5036683;28;20236;-54
2024/02/11 01:22:48;;;;;;;10.50;9.47;;;9.60;99.90;;;-141.84;98.35;105111.94;5037667;28;20242;-53
2024/02/11 01:25:20;;;;;;;12.40;9.63;;;9.60;99.90;;;-141.84;97.26;102455.00;5027860;28;20641;-54
2024/02/11 01:27:49;;;;;;;12.63;9.53;;;9.70;99.90;;;-141.84;98.78;105111.94;5039050;28;20216;-55
2024/02/11 01:30:21;;;;;;;11.67;10.10;;;9.60;99.90;;;-141.84;100.00;107770.63;5040017;28;20194;-54
2024/02/11 01:32:49;;;;;;;10.50;9.17;;;9.60;99.90;;;-141.84;99.51;106441.06;5038183;28;20705;-51
2024/02/11 01:35:21;;;;;;;11.97;10.33;;;9.60;99.90;;;-141.84;99.72;106972.81;5037690;28;20237;-54
2024/02/11 01:37:49;;;;;;;11.70;9.73;;;9.60;99.90;;;-141.84;96.13;101392.69;5041060;28;20221;-53
2024/02/11 01:40:21;;;;;;;10.83;8.73;;;9.60;99.90;;;-141.84;96.63;100596.16;5041303;28;20232;-52
2024/02/11 01:42:56;;;;;;;11.70;9.60;;;9.60;99.90;;;-141.84;97.35;102720.59;5042390;28;20246;-54
2024/02/11 01:45:25;;;;;;;10.67;9.57;;;9.70;99.90;;;-141.84;96.60;100861.66;5042462;28;20312;-54
2024/02/11 01:47:54;;;;;;;10.20;9.07;;;9.60;99.90;;;-141.84;98.59;104580.41;5039345;28;20194;-67
2024/02/11 01:50:31;;;;;;;11.13;9.80;;;9.60;99.90;;;-141.84;98.59;104580.41;5049606;28;20252;-53
2024/02/11 01:53:01;;;;;;;10.33;9.07;;;9.60;99.90;;;-141.84;99.19;106175.19;5041435;28;20279;-54
2024/02/11 01:55:33;;;;;;;11.50;10.13;;;9.50;99.90;;;-141.84;99.24;106175.19;5041275;28;20475;-54
2024/02/11 01:58:02;;;;;;;11.37;9.77;;;9.60;99.90;;;-141.84;98.71;105111.94;5045703;28;20296;-56
2024/02/11 02:00:31;;;;;;;11.30;9.37;;;9.50;99.90;;;-141.84;98.21;104314.66;5042134;28;20295;-55
2024/02/11 02:03:01;;;;;;;11.43;10.17;;;9.50;99.90;;;-141.84;99.09;105643.53;5045282;28;20625;-56
2024/02/11 02:05:30;;;;;;;10.57;9.43;;;9.50;99.90;;;-141.84;99.60;106441.06;5037470;28;20285;-55
2024/02/11 02:07:59;;;;;;;10.73;9.50;;;9.40;99.90;;;-141.84;100.00;108302.56;5042933;28;20256;-52
2024/02/11 02:10:27;;;;;;;11.77;10.10;;;9.40;99.90;;;-141.84;100.00;107770.63;5041990;28;20256;-52
2024/02/11 02:12:59;;;;;;;11.60;10.40;;;9.40;99.90;;;-141.84;100.00;108568.56;5045945;28;20464;-54
2024/02/11 02:15:28;;;;;;;13.00;9.13;;;9.40;99.90;;;-141.84;99.82;107238.72;5046288;28;20285;-55
2024/02/11 02:17:59;;;;;;;12.57;9.87;;;9.40;99.90;;;-141.84;100.00;109100.59;5044082;28;20275;-54
2024/02/11 02:20:28;;;;;;;12.07;9.40;;;9.40;99.90;;;-141.84;100.00;109100.59;5043765;28;20225;-52
2024/02/11 02:22:58;;;;;;;11.70;9.63;;;9.30;99.90;;;-141.84;100.00;112294.34;5042791;28;20221;-55
2024/02/11 02:25:27;;;;;;;12.43;9.90;;;9.30;99.90;;;-141.84;100.00;114691.31;5040270;28;20740;-55
2024/02/11 02:27:58;;;;;;;10.27;9.13;;;9.20;99.90;;;-141.84;100.00;116556.59;5042999;28;20226;-56
2024/02/11 02:30:28;;;;;;;10.80;9.40;;;9.10;99.90;;;-141.84;100.00;114957.72;5032045;28;20325;-55
2024/02/11 02:33:00;;;;;;;10.47;9.33;;;9.10;99.90;;;-141.84;100.00;114957.72;5046477;28;20288;-55
2024/02/11 02:35:28;;;;;;;11.87;9.83;;;9.10;99.90;;;-141.84;100.00;116556.59;5043439;28;20270;-53
2024/02/11 02:37:58;;;;;;;12.80;9.57;;;9.00;99.90;;;-141.84;100.00;117089.69;5041092;28;20233;-53
2024/02/11 02:40:26;;;;;;;11.90;9.17;;;9.00;99.90;;;-141.84;100.00;117889.44;5040229;28;20643;-54
2024/02/11 02:42:58;;;;;;;10.63;9.53;;;9.00;99.90;;;-141.84;100.00;118422.72;5048720;28;20256;-51
2024/02/11 02:45:26;;;;;;;11.50;10.30;;;8.90;99.90;;;-141.84;100.00;119222.75;5043365;28;20798;-55
2024/02/11 02:47:55;;;;;;;10.73;9.63;;;8.90;99.90;;;-141.84;100.00;119224.81;5044556;28;20190;-53
2024/02/11 02:50:23;;;;;;;12.13;10.37;;;8.80;99.90;;;-141.84;100.00;119224.81;5042168;28;20217;-54
2024/02/11 02:52:52;;;;;;;13.20;10.33;;;8.80;99.90;;;-141.84;100.00;119224.81;5040904;28;20220;-55
2024/02/11 02:55:22;;;;;;;11.33;10.13;;;8.80;99.90;;;-141.84;100.00;119224.81;5041479;28;20234;-54
2024/02/11 02:57:51;;;;;;;13.27;10.93;;;8.70;99.90;;;-141.84;100.00;119224.81;5043568;28;20309;-57
2024/02/11 03:00:20;;;;;;;13.27;10.37;;;8.50;99.90;;;-141.84;100.00;119224.81;5045322;28;20308;-54
2024/02/11 03:02:52;;;;;;;14.80;10.87;;;8.60;99.90;;;-141.84;100.00;119224.81;5044648;28;20208;-51
2024/02/11 03:05:22;;;;;;;13.03;11.03;;;8.70;99.90;;;-141.84;100.00;119224.81;5041547;28;20229;-53
2024/02/11 03:07:53;;;;;;;12.97;11.43;;;8.70;99.90;;;-141.84;100.00;119224.81;5044542;28;20229;-54
2024/02/11 03:10:23;;;;;;;14.03;11.80;;;8.70;99.90;;;-141.84;100.00;119224.81;5043679;28;20296;-53
2024/02/11 03:12:52;;;;;;;13.77;12.27;;;8.70;99.90;;;-141.84;100.00;119224.81;5047270;28;20332;-55
2024/02/11 03:15:21;;;;;;;15.63;12.30;;;8.70;99.90;;;-141.84;100.00;119224.81;5043896;28;20238;-57
2024/02/11 03:17:49;;;;;;;17.00;13.13;;;8.70;99.90;;;-141.84;100.00;119224.81;5040978;28;20194;-56
2024/02/11 03:20:20;;;;;;;18.97;13.97;;;8.70;99.90;;;-141.84;100.00;119224.81;5042734;28;20270;-53
2024/02/11 03:22:52;;;;;;;17.70;14.97;;;8.70;99.90;;;-141.84;100.00;119224.81;5042586;28;20217;-55
2024/02/11 03:25:20;;;;;;;20.77;16.97;;;8.70;99.90;;;-141.84;100.00;119224.81;5042971;28;20245;-55
2024/02/11 03:27:53;;;;;;;19.37;16.23;;;8.70;99.90;;;-141.84;100.00;119224.81;5041184;28;20318;-54
2024/02/11 03:30:22;;;;;;;23.70;18.77;;;8.70;99.90;;;-141.84;100.00;119224.81;5041704;28;20288;-53
2024/02/11 03:32:51;;;;;;;21.77;17.97;;;8.60;99.90;;;-141.84;100.00;119224.81;5042558;28;20196;-53
2024/02/11 03:35:20;;;;;;;24.30;18.53;;;8.60;99.90;;;-141.84;100.00;119224.81;5041486;28;20325;-55
2024/02/11 03:37:48;;;;;;;24.30;19.03;;;8.60;99.90;;;-141.84;100.00;119224.81;5041483;28;20226;-53
2024/02/11 03:40:19;;;;;;;26.47;20.07;;;8.70;99.90;;;-141.84;100.00;119224.81;5041159;28;20226;-52
2024/02/11 03:42:47;;;;;;;28.93;19.73;;;8.70;99.90;;;-141.84;100.00;119224.81;5047809;28;20275;-55
2024/02/11 03:45:19;;;;;;;25.53;19.93;;;8.70;99.90;;;-141.84;100.00;119224.81;5050038;28;20251;-56
2024/02/11 03:47:48;;;;;;;24.13;19.97;;;8.60;99.90;;;-141.84;100.00;119224.81;5040126;28;20593;-54
2024/02/11 03:50:19;;;;;;;28.07;20.60;;;8.60;99.90;;;-141.84;100.00;119224.81;5043162;28;20233;-53
2024/02/11 03:52:47;;;;;;;31.03;21.07;;;8.60;99.90;;;-141.84;100.00;119224.81;5039970;28;20226;-51
2024/02/11 03:55:18;;;;;;;27.70;20.13;;;8.60;99.90;;;-141.84;100.00;119224.81;5040182;28;20376;-54
2024/02/11 03:57:46;;;;;;;28.77;20.93;;;8.70;99.90;;;-141.84;100.00;119224.81;5049799;28;20310;-54
2024/02/11 04:00:20;;;;;;;30.40;22.13;;;8.60;99.90;;;-141.84;100.00;119224.81;5040320;28;20205;-53
2024/02/11 04:02:48;;;;;;;30.03;22.53;;;8.60;99.90;;;-141.84;100.00;119224.81;5039117;28;20646;-54
2024/02/11 04:05:16;;;;;;;31.70;22.10;;;8.60;99.90;;;-141.84;100.00;119224.81;5041455;28;20237;-54
2024/02/11 04:07:46;;;;;;;31.93;21.97;;;8.70;99.90;;;-141.84;100.00;119224.81;5041754;28;20224;-56
2024/02/11 04:10:22;;;;;;;33.40;23.80;;;8.70;99.90;;;-141.84;100.00;119224.81;5044883;28;20256;-54
2024/02/11 04:12:53;;;;;;;32.27;22.50;;;8.70;99.90;;;-141.84;100.00;119224.81;5011189;28;20220;-50
2024/02/11 04:15:24;;;;;;;32.40;23.60;;;8.70;99.90;;;-141.84;100.00;119224.81;5043330;28;20594;-52
2024/02/11 04:17:56;;;;;;;32.90;23.33;;;8.70;99.90;;;-141.84;100.00;119224.81;5040933;28;20217;-55
2024/02/11 04:20:27;;;;;;;35.07;23.83;;;8.70;99.90;;;-141.84;100.00;119224.81;5044379;28;20225;-50
2024/02/11 04:22:58;;;;;;;35.63;25.13;;;8.70;99.90;;;-141.84;100.00;119224.81;5040349;28;20787;-51
2024/02/11 04:25:33;;;;;;;34.83;24.43;;;8.80;99.90;;;-141.84;100.00;119224.81;5044574;28;20209;-52
2024/02/11 04:28:07;;;;;;;35.53;24.90;;;8.80;99.90;;;-141.84;100.00;119224.81;5043704;28;20575;-51
2024/02/11 04:30:42;;;;;;;37.77;25.57;;;8.80;99.90;;;-141.84;100.00;119224.81;5049076;28;20245;-54
2024/02/11 04:33:14;;;;;;;35.70;25.17;;;8.70;99.90;;;-141.84;100.00;119224.81;5038743;28;20268;-53
2024/02/11 04:35:43;;;;;;;37.70;24.33;;;8.80;99.90;;;-141.84;100.00;119224.81;5042430;28;20245;-53
2024/02/11 04:38:13;;;;;;;39.63;25.87;;;8.70;99.90;;;-141.84;100.00;119224.81;5047016;28;20222;-53
2024/02/11 04:40:44;;;;;;;38.07;26.77;;;8.80;99.90;;;-141.84;100.00;119224.81;5040887;28;20560;-53
2024/02/11 04:43:13;;;;;;;37.57;25.53;;;8.80;99.90;;;-141.84;100.00;119224.81;5049816;28;20259;-55
2024/02/11 04:45:43;;;;;;;35.20;24.50;;;8.80;99.90;;;-141.84;100.00;119224.81;5048518;28;20300;-52
2024/02/11 04:48:12;;;;;;;37.90;25.77;;;8.80;99.90;;;-141.84;100.00;119224.81;5036552;28;20190;-55
2024/02/11 04:50:41;;;;;;;35.07;23.70;;;8.70;99.90;;;-141.84;100.00;119224.81;5042258;28;20194;-55
2024/02/11 04:53:10;;;;;;;36.03;24.63;;;8.80;99.90;;;-141.84;100.00;119224.81;5040206;28;20221;-53
2024/02/11 04:55:43;;;;;;;36.80;24.93;;;8.80;99.90;;;-141.84;100.00;119224.81;5042679;28;20256;-55
2024/02/11 04:58:15;;;;;;;37.30;25.13;;;8.80;99.90;;;-141.84;100.00;119224.81;5044968;28;20248;-55
2024/02/11 05:00:49;;;;;;;39.33;25.17;;;8.80;99.90;;;-141.84;100.00;119224.81;5045567;28;20227;-54
2024/02/11 05:03:21;;;;;;;41.13;24.97;;;8.90;99.90;;;-141.84;100.00;119224.81;5038436;28;20190;-55
2024/02/11 05:05:51;;;;;;;32.53;24.10;;;8.80;99.90;;;-141.84;100.00;119224.81;5040775;28;20210;-52
2024/02/11 05:08:22;;;;;;;35.47;24.77;;;8.80;99.90;;;-141.84;100.00;119224.81;5042676;28;20687;-54
2024/02/11 05:10:53;;;;;;;37.03;24.77;;;8.80;99.90;;;-141.84;100.00;119224.81;5045234;28;20239;-54
2024/02/11 05:13:29;;;;;;;35.20;24.07;;;8.90;99.90;;;-141.84;100.00;119224.81;5045431;28;20312;-53
2024/02/11 05:16:03;;;;;;;36.20;24.57;;;8.90;99.90;;;-141.84;100.00;119224.81;5042288;28;20233;-53
2024/02/11 05:18:32;;;;;;;34.47;24.53;;;8.90;99.90;;;-141.84;100.00;119224.81;5044529;28;20280;-55
2024/02/11 05:21:02;;;;;;;36.60;23.97;;;8.90;99.90;;;-141.84;100.00;119224.81;5048055;28;20205;-55
2024/02/11 05:23:31;;;;;;;36.07;25.27;;;8.80;99.90;;;-141.84;100.00;119224.81;5045781;28;20248;-56
2024/02/11 05:26:01;;;;;;;35.17;25.30;;;8.90;99.90;;;-141.84;100.00;119224.81;5045672;28;20217;-51
2024/02/11 05:28:30;;;;;;;36.20;24.57;;;8.80;99.90;;;-141.84;100.00;119224.81;5041199;28;20217;-53
2024/02/11 05:31:01;;;;;;;33.50;24.47;;;8.80;99.90;;;-141.84;100.00;119224.81;5041445;28;20230;-52
2024/02/11 05:33:29;;;;;;;38.00;24.90;;;8.80;99.90;;;-141.84;100.00;119224.81;5043177;28;20221;-55
2024/02/11 05:35:59;;;;;;;36.73;25.07;;;8.90;99.90;;;-141.84;100.00;119224.81;5044628;28;20449;-54
2024/02/11 05:38:29;;;;;;;34.53;25.13;;;8.90;99.90;;;-141.84;100.00;119224.81;5047383;28;20505;-53
2024/02/11 05:41:03;;;;;;;37.90;24.10;;;8.80;99.90;;;-141.84;100.00;119224.81;5044274;28;20697;-55
2024/02/11 05:43:31;;;;;;;35.97;24.47;;;8.80;99.90;;;-141.84;100.00;119224.81;5043663;28;20217;-54
2024/02/11 05:46:01;;;;;;;36.27;25.13;;;8.80;99.90;;;-141.84;100.00;119224.81;5044202;28;20261;-55
2024/02/11 05:48:30;;;;;;;37.00;24.97;;;8.90;99.90;;;-141.84;100.00;119224.81;5041211;28;20643;-56
2024/02/11 05:50:59;;;;;;;35.10;24.83;;;8.80;99.90;;;-141.84;100.00;119224.81;5042623;28;20213;-57
2024/02/11 05:53:27;;;;;;;35.30;24.90;;;8.80;99.90;;;-141.84;100.00;119224.81;5041988;28;20225;-56
2024/02/11 05:55:57;;;;;;;39.60;24.77;;;8.80;99.90;;;-141.84;100.00;119224.81;5043600;28;20308;-55
2024/02/11 05:58:25;;;;;;;37.80;25.33;;;8.80;99.90;;;-141.84;100.00;119224.81;5032391;28;20222;-56
2024/02/11 06:00:54;;;;;;;32.77;23.10;;;8.80;99.90;;;-141.84;100.00;119224.81;5043050;28;20222;-53
2024/02/11 06:03:23;;;;;;;34.20;23.93;;;8.80;99.90;;;-141.84;100.00;119224.81;5043650;28;20202;-58
2024/02/11 06:05:52;;;;;;;35.27;23.40;;;8.80;99.90;;;-141.84;100.00;119224.81;5044368;28;20276;-53
2024/02/11 06:08:20;;;;;;;38.70;25.03;;;8.80;99.90;;;-141.84;100.00;119224.81;5040885;28;20499;-55
2024/02/11 06:10:49;;;;;;;33.97;23.90;;;8.80;99.90;;;-141.84;100.00;119224.81;5040573;28;20281;-55
2024/02/11 06:13:19;;;;;;;34.63;23.87;;;8.80;99.90;;;-141.84;100.00;119224.81;5040686;28;20222;-56
2024/02/11 06:15:47;;;;;;;32.00;22.97;;;8.80;99.90;;;-141.84;100.00;119224.81;5042467;28;20245;-51
2024/02/11 06:18:20;;;;;;;37.67;24.43;;;8.80;99.90;;;-141.84;100.00;119224.81;5043858;28;20194;-55
2024/02/11 06:20:50;;;;;;;35.73;24.53;;;8.80;99.90;;;-141.84;100.00;119224.81;5018329;28;20292;-54
2024/02/11 06:23:20;;;;;;;37.43;24.53;;;8.80;99.90;;;-141.84;100.00;119224.81;5041455;28;20241;-55
2024/02/11 06:25:50;;;;;;;33.33;23.07;;;8.80;99.90;;;-141.84;100.00;119224.81;5042193;28;20792;-55
2024/02/11 06:28:21;;;;;;;33.50;22.90;;;8.70;99.90;;;-141.84;100.00;119224.81;5043989;28;20234;-54
2024/02/11 06:30:49;;;;;;;32.70;23.13;;;8.80;99.90;;;-141.84;100.00;119224.81;5046228;28;20308;-52
2024/02/11 06:33:19;;;;;;;34.40;23.93;;;8.80;99.90;;;-141.84;100.00;119224.81;5045325;28;20193;-55
2024/02/11 06:35:48;;;;;;;33.00;22.67;;;8.70;99.90;;;-141.84;100.00;119224.81;5038608;28;20197;-53
2024/02/11 06:38:18;;;;;;;34.33;23.00;;;8.80;99.90;;;-141.84;100.00;119224.81;5045866;28;20809;-53
2024/02/11 06:40:47;;;;;;;30.20;21.83;;;8.80;99.90;;;-141.84;100.00;119224.81;5042751;28;20701;-53
2024/02/11 06:43:17;;;;;;;32.90;21.60;;;8.80;99.90;;;-141.84;100.00;119224.81;5044179;28;20217;-56
2024/02/11 06:45:48;;;;;;;31.87;21.20;;;8.80;99.90;;;-141.84;100.00;119224.81;5046251;28;20296;-54
2024/02/11 06:48:23;;;;;;;31.57;21.87;;;8.80;99.90;;;-141.84;100.00;119224.81;5041775;28;20658;-55
2024/02/11 06:50:51;;;;;;;32.67;22.27;;;8.80;99.90;;;-141.84;100.00;119224.81;5042753;28;20186;-55
2024/02/11 06:53:21;;;;;;;30.63;20.93;;;8.90;99.90;;;-141.84;100.00;119224.81;5038979;28;20253;-52
2024/02/11 06:55:49;;;;;;;30.57;21.40;;;8.90;99.90;;;-141.84;100.00;119224.81;5038441;28;20226;-53
2024/02/11 06:58:21;;;;;;;32.43;22.37;;;8.90;99.90;;;-141.84;100.00;119224.81;5040510;28;20214;-55
2024/02/11 07:00:49;;;;;;;28.10;20.87;;;8.80;99.90;;;-141.84;100.00;119224.81;5030986;28;20737;-54
2024/02/11 07:03:23;;;;;;;30.67;21.87;;;8.80;99.90;;;-141.84;100.00;119224.81;5042709;28;20205;-54
2024/02/11 07:05:51;;;;;;;30.70;21.00;;;8.80;99.90;;;-141.84;100.00;119224.81;5039171;28;20190;-54
2024/02/11 07:08:24;;;;;;;30.97;21.40;;;8.90;99.90;;;-141.84;100.00;119224.81;5036926;28;20230;-54
2024/02/11 07:10:52;;;;;;;29.33;20.23;;;8.90;99.90;;;-141.84;100.00;119224.81;5038110;28;20238;-55
2024/02/11 07:13:21;;;;;;;27.70;20.67;;;8.90;99.90;;;-141.84;100.00;119224.81;5041729;28;20228;-55
2024/02/11 07:15:49;;;;;;;28.43;20.67;;;8.90;99.90;;;-141.84;100.00;119224.81;5040585;28;20681;-55
2024/02/11 07:18:22;;;;;;;26.03;19.37;;;8.90;99.90;;;-141.84;100.00;119224.81;5041202;28;20270;-54
2024/02/11 07:20:51;;;;;;;28.80;19.80;;;8.90;99.90;;;-141.84;100.00;119224.81;5038957;28;20194;-65
2024/02/11 07:23:21;;;;;;;29.13;20.13;;;8.80;99.90;;;-141.84;100.00;119224.81;5040696;28;20579;-65
2024/02/11 07:25:49;;;;;;;29.90;21.23;;;8.90;99.90;;;-141.84;100.00;119224.81;5041338;28;20230;-64
2024/02/11 07:28:19;;;;;;;27.17;19.23;;;8.90;99.90;;;-141.84;100.00;119224.81;5043149;28;20229;-65
2024/02/11 07:30:48;;;;;;;28.10;19.53;;;8.90;99.90;;;-141.84;100.00;119224.81;5028311;28;20217;-65
2024/02/11 07:33:18;;;;;;;30.53;21.03;;;8.90;99.90;;;-141.84;100.00;119224.81;5043215;28;20202;-65
2024/02/11 07:35:47;;;;;;;30.80;21.13;;;8.90;99.90;;;-141.84;100.00;119224.81;5041935;28;20190;-66
2024/02/11 07:38:16;;;;;;;26.60;19.90;;;8.90;99.90;;;-141.84;100.00;119224.81;5039396;28;20280;-65
2024/02/11 07:40:49;;;;;;;28.67;20.07;;;8.90;99.90;;;-141.84;100.00;119224.81;5041467;28;20229;-66
2024/02/11 07:43:18;;;;;;;28.67;20.63;;;8.90;99.90;;;-141.84;100.00;119224.81;5042068;28;20231;-64
2024/02/11 07:45:47;;;;;;;28.13;19.47;;;9.00;99.90;;;-141.84;100.00;118956.03;5042619;28;20245;-65
2024/02/11 07:48:15;;;;;;;29.13;21.10;;;9.00;99.90;;;-141.84;100.00;119224.81;5044888;28;20186;-65
2024/02/11 07:50:46;;;;;;;29.57;20.03;;;9.00;99.90;;;-141.84;100.00;119222.75;5043117;28;20198;-65
2024/02/11 07:53:22;;;;;;;27.27;19.97;;;9.00;99.90;;;-141.84;100.00;118156.06;5042201;28;20218;-64
2024/02/11 07:55:51;;;;;;;31.60;20.47;;;9.10;99.90;;;-141.84;100.00;117889.44;5041445;28;20283;-65
2024/02/11 07:58:22;;;;;;;29.13;20.33;;;9.10;99.90;;;-141.84;100.00;118689.38;5049484;28;20228;-65
2024/02/11 08:00:50;;;;;;;29.67;19.97;;;9.10;99.90;;;-141.84;100.00;118956.03;5045486;28;20237;-65
2024/02/11 08:03:20;;;;;;;29.37;20.30;;;9.10;99.90;;;-141.84;100.00;115757.06;5043546;28;20193;-65
2024/02/11 08:05:51;;;;;;;32.67;21.50;;;9.10;99.90;;;-141.84;100.00;117089.69;5042672;28;20252;-65
2024/02/11 08:08:22;;;;;;;27.10;18.90;;;9.20;99.90;;;-141.84;100.00;118156.06;5041343;28;20217;-65
2024/02/11 08:10:52;;;;;;;28.77;19.67;;;9.00;99.90;;;-141.84;100.00;117622.84;5042645;28;20279;-65
2024/02/11 08:13:22;;;;;;;27.27;19.70;;;9.10;99.90;;;-141.84;100.00;118156.06;5043473;28;20281;-65
2024/02/11 08:15:50;;;;;;;30.33;20.20;;;9.10;99.90;;;-141.84;100.00;117889.44;5041857;28;20238;-65
2024/02/11 08:18:19;;;;;;;28.33;18.63;;;9.10;99.90;;;-141.84;100.00;117622.84;5040371;28;20325;-66
2024/02/11 08:20:47;;;;;;;32.83;20.43;;;9.00;99.90;;;-141.84;100.00;117889.44;5040416;28;20194;-65
2024/02/11 08:23:17;;;;;;;27.63;18.43;;;9.10;99.90;;;-141.84;100.00;118689.38;5041214;28;20217;-66
2024/02/11 08:25:45;;;;;;;29.17;18.33;;;9.00;99.90;;;-141.84;100.00;119222.75;5041628;28;20222;-64
2024/02/11 08:28:14;;;;;;;30.90;19.37;;;9.10;99.90;;;-141.84;100.00;118422.72;5042114;28;20233;-65
2024/02/11 08:30:45;;;;;;;28.47;19.37;;;9.10;99.90;;;-141.84;100.00;118156.06;5041072;28;20533;-66
2024/02/11 08:33:14;;;;;;;31.33;20.87;;;9.20;99.90;;;-141.84;100.00;117622.84;5039640;28;20573;-65
2024/02/11 08:35:46;;;;;;;28.17;20.20;;;9.10;99.90;;;-141.84;100.00;114158.53;5042879;28;20198;-65
2024/02/11 08:38:15;;;;;;;30.50;20.80;;;9.20;99.90;;;-141.84;100.00;113892.16;5043278;28;20225;-66
2024/02/11 08:40:44;;;;;;;31.63;21.10;;;9.20;99.90;;;-141.84;100.00;114424.91;5029966;28;20222;-64
2024/02/11 08:43:14;;;;;;;29.80;20.63;;;9.10;99.90;;;-141.84;100.00;116023.56;5044679;28;20218;-65
2024/02/11 08:45:45;;;;;;;28.10;20.97;;;9.10;99.90;;;-141.84;100.00;117089.69;5035153;28;20229;-52
2024/02/11 08:48:14;;;;;;;30.63;20.43;;;9.20;99.90;;;-141.84;100.00;117622.84;5038551;28;20292;-54
2024/02/11 08:50:43;;;;;;;29.67;19.33;;;9.20;99.90;;;-141.84;100.00;112826.88;5006167;28;20202;-56
2024/02/11 08:53:14;;;;;;;28.40;19.13;;;9.20;99.90;;;-141.84;100.00;112826.88;5041653;28;20228;-54
2024/02/11 08:55:45;;;;;;;30.67;20.77;;;9.30;99.90;;;-141.84;100.00;113625.81;5041221;28;20256;-53
2024/02/11 08:58:16;;;;;;;31.03;20.93;;;9.30;99.90;;;-141.84;100.00;113625.81;5051119;28;20229;-54
2024/02/11 09:00:48;;;;;;;29.10;19.53;;;9.30;99.90;;;-141.84;100.00;112294.34;5039666;28;20251;-53
2024/02/11 09:03:17;;;;;;;29.90;20.07;;;9.30;99.90;;;-141.84;100.00;112294.34;5038085;28;20639;-53
2024/02/11 09:05:45;;;;;;;29.23;18.90;;;9.30;99.90;;;-141.84;99.14;108036.56;5025464;28;20727;-55
2024/02/11 09:08:15;;;;;;;31.97;20.17;;;9.40;99.90;;;-141.84;99.86;109100.59;5014135;28;20221;-55
2024/02/11 09:10:47;;;;;;;31.27;20.10;;;9.40;99.90;;;-141.84;97.48;105377.72;5043065;28;20725;-57
2024/02/11 09:13:17;;;;;;;28.27;19.10;;;9.50;99.90;;;-141.84;98.36;105909.34;5040830;28;20282;-55
2024/02/11 09:15:45;;;;;;;26.53;18.93;;;9.50;99.90;;;-141.84;97.28;104580.41;5041012;28;20295;-56
2024/02/11 09:18:15;;;;;;;26.43;19.10;;;9.60;99.90;;;-141.84;97.59;105377.72;5041025;28;20308;-52
2024/02/11 09:20:44;;;;;;;26.73;19.40;;;9.70;99.90;;;-141.84;95.24;101392.69;5040785;28;20247;-54
2024/02/11 09:23:13;;;;;;;26.03;17.90;;;9.70;99.90;;;-141.84;94.46;98207.50;5039873;28;20241;-53
2024/02/11 09:25:42;;;;;;;28.90;17.93;;;9.70;99.90;;;-141.84;93.72;97146.31;5048501;28;20221;-56
2024/02/11 09:28:11;;;;;;;25.23;18.30;;;9.70;99.90;;;-141.84;93.41;95555.09;5038009;28;20229;-55
2024/02/11 09:30:42;;;;;;;25.70;17.47;;;9.80;99.90;;;-141.84;93.86;97411.59;5038243;28;20317;-55
2024/02/11 09:33:11;;;;;;;27.77;18.17;;;9.90;99.90;;;-141.84;83.91;62546.50;5039193;28;20674;-56
2024/02/11 09:35:43;;;;;;;24.43;17.30;;;10.20;99.90;;;-141.84;83.45;57290.34;5042609;28;20196;-55
2024/02/11 09:38:11;;;;;;;23.07;17.60;;;10.20;99.90;;;-141.84;86.19;70443.78;5037821;28;20253;-54
2024/02/11 09:40:40;;;;;;;23.88;16.60;;;10.20;99.90;;;-141.84;88.45;79941.19;5041801;28;20321;-56
2024/02/11 09:43:12;;;;;;;27.73;19.40;;;10.10;99.90;;;-141.84;88.33;80205.34;5040245;28;20256;-55
2024/02/11 09:45:43;;;;;;;26.07;18.20;;;10.10;99.90;;;-141.84;89.57;83905.09;5040296;28;20232;-55
2024/02/11 09:48:12;;;;;;;30.60;19.07;;;10.00;99.90;;;-141.84;85.34;69653.38;5039165;28;20274;-55
2024/02/11 09:50:44;;;;;;;28.97;19.47;;;10.10;99.90;;;-141.84;86.30;70970.84;5046541;28;20259;-55
2024/02/11 09:53:17;;;;;;;28.40;19.70;;;10.10;99.90;;;-141.84;89.07;82319.06;5035052;28;20296;-53
2024/02/11 09:55:47;;;;;;;30.13;20.03;;;10.10;99.90;;;-141.84;88.04;80997.84;5043721;28;20724;-54
2024/02/11 09:58:15;;;;;;;27.90;19.53;;;10.10;99.90;;;-141.84;87.95;78620.75;5044855;28;20225;-56
2024/02/11 10:00:46;;;;;;;29.07;19.97;;;10.10;99.90;;;-141.84;89.90;86285.31;5043799;28;20736;-57